Time;durP1;ratioP1;P1;durP2;ratioP2;P2;SDS_P1;SDS_P2;PMS_P1;PMS_P2;Temp;Humidity;BMP_temperature;BMP_pressure;BME280_temperature;BME280_humidity;BME280_pressure;Samples;Min_cycle;Max_cycle;Signal;HPM_P1;HPM_P2
2022/10/11 00:00:34;;;;;;;7.63;2.65;;;9.90;99.90;;;;;;2086225;28;20025;-70
2022/10/11 00:01:35;;;;;;;11.00;2.97;;;9.90;99.90;;;;;;2084401;28;20461;-70
2022/10/11 00:02:35;;;;;;;10.73;3.20;;;9.80;99.90;;;;;;2085789;28;20669;-70
2022/10/11 00:03:36;;;;;;;6.85;2.35;;;9.80;99.90;;;;;;2084825;28;20078;-70
2022/10/11 00:04:36;;;;;;;7.63;2.78;;;9.80;99.90;;;;;;2084617;28;20079;-70
2022/10/11 00:05:37;;;;;;;5.65;2.42;;;9.80;99.90;;;;;;2086142;28;20017;-70
2022/10/11 00:06:38;;;;;;;5.38;2.33;;;9.80;99.90;;;;;;2086073;28;20469;-70
2022/10/11 00:07:38;;;;;;;6.50;3.25;;;9.80;99.90;;;;;;2086137;28;20016;-70
2022/10/11 00:08:39;;;;;;;6.97;2.90;;;9.80;99.90;;;;;;2087643;28;20401;-70
2022/10/11 00:09:39;;;;;;;7.97;3.17;;;9.80;99.90;;;;;;2085725;28;20032;-70
2022/10/11 00:10:40;;;;;;;6.93;2.50;;;9.70;99.90;;;;;;2086309;28;20166;-70
2022/10/11 00:11:41;;;;;;;10.32;3.20;;;9.70;99.90;;;;;;2085595;28;20029;-70
2022/10/11 00:12:42;;;;;;;5.45;2.60;;;9.70;99.90;;;;;;2085572;28;21230;-70
2022/10/11 00:13:42;;;;;;;7.30;2.85;;;9.70;99.90;;;;;;2086005;28;20074;-70
2022/10/11 00:14:43;;;;;;;6.10;2.75;;;9.70;99.90;;;;;;2077414;28;20032;-70
2022/10/11 00:15:43;;;;;;;6.45;2.72;;;9.70;99.90;;;;;;2077618;28;20462;-71
2022/10/11 00:16:44;;;;;;;5.32;2.50;;;9.70;99.90;;;;;;2086810;28;20032;-71
2022/10/11 00:17:44;;;;;;;5.93;2.53;;;9.70;99.90;;;;;;2084734;28;20013;-71
2022/10/11 00:18:45;;;;;;;10.00;2.70;;;9.70;99.90;;;;;;2086832;28;20477;-71
2022/10/11 00:19:46;;;;;;;6.88;3.10;;;9.70;99.90;;;;;;2085782;28;20027;-71
2022/10/11 00:20:46;;;;;;;8.68;2.63;;;9.60;99.90;;;;;;2086408;28;20089;-71
2022/10/11 00:21:47;;;;;;;8.77;3.00;;;9.60;99.90;;;;;;2086983;28;20480;-71
2022/10/11 00:22:48;;;;;;;8.60;3.05;;;9.60;99.90;;;;;;2085621;28;20082;-71
2022/10/11 00:23:49;;;;;;;6.38;2.90;;;9.60;99.90;;;;;;2084089;28;20048;-71
2022/10/11 00:24:49;;;;;;;7.63;2.72;;;9.60;99.90;;;;;;2084388;28;20021;-71
2022/10/11 00:26:00;;;;;;;7.63;2.80;;;9.60;99.90;;;;;;2086528;28;20087;-71
2022/10/11 00:27:01;;;;;;;5.80;2.78;;;9.60;99.90;;;;;;2085449;28;20028;-71
2022/10/11 00:28:02;;;;;;;7.57;2.95;;;9.60;99.90;;;;;;2086123;28;20034;-71
2022/10/11 00:29:03;;;;;;;7.05;3.00;;;9.60;99.90;;;;;;2085361;28;20025;-71
2022/10/11 00:30:05;;;;;;;7.18;3.03;;;9.50;99.90;;;;;;2086478;28;20100;-71
2022/10/11 00:31:12;;;;;;;7.55;2.90;;;9.50;99.90;;;;;;2084928;28;20059;-71
2022/10/11 00:32:12;;;;;;;6.03;2.60;;;9.50;99.90;;;;;;2085920;28;20032;-71
2022/10/11 00:33:13;;;;;;;5.38;2.83;;;9.50;99.90;;;;;;2083612;28;20025;-71
2022/10/11 00:34:16;;;;;;;12.52;2.88;;;9.50;99.90;;;;;;2084800;28;20108;-71
2022/10/11 00:35:17;;;;;;;5.32;2.55;;;9.50;99.90;;;;;;2085939;28;20079;-71
2022/10/11 00:36:17;;;;;;;8.15;2.92;;;9.50;99.90;;;;;;2085740;28;20031;-71
2022/10/11 00:37:19;;;;;;;7.28;3.15;;;9.50;99.90;;;;;;2085709;28;20100;-70
2022/10/11 00:38:19;;;;;;;6.80;2.90;;;9.50;99.90;;;;;;2085291;28;20017;-70
2022/10/11 00:39:20;;;;;;;7.18;3.15;;;9.50;99.90;;;;;;2086520;28;20037;-70
2022/10/11 00:40:20;;;;;;;6.35;2.70;;;9.50;99.90;;;;;;2086095;28;20039;-70
2022/10/11 00:41:21;;;;;;;7.57;2.80;;;9.40;99.90;;;;;;2085246;28;20029;-70
2022/10/11 00:42:22;;;;;;;7.35;3.05;;;9.40;99.90;;;;;;2084736;28;20676;-70
2022/10/11 00:43:25;;;;;;;6.30;2.95;;;9.40;99.90;;;;;;2085758;28;20112;-70
2022/10/11 00:44:27;;;;;;;9.07;3.85;;;9.40;99.90;;;;;;2086061;28;20160;-70
2022/10/11 00:45:31;;;;;;;7.25;3.72;;;9.40;99.90;;;;;;2084964;28;20061;-70
2022/10/11 00:46:31;;;;;;;6.63;2.97;;;9.40;99.90;;;;;;2082883;28;20036;-70
2022/10/11 00:47:32;;;;;;;6.50;2.65;;;9.40;99.90;;;;;;2084020;28;20060;-70
2022/10/11 00:48:37;;;;;;;7.72;2.78;;;9.40;99.90;;;;;;2085986;28;20025;-70
2022/10/11 00:49:41;;;;;;;8.70;3.03;;;9.40;99.90;;;;;;2086791;28;20043;-70
2022/10/11 00:50:42;;;;;;;9.73;3.55;;;9.40;99.90;;;;;;2085794;28;20075;-70
2022/10/11 00:51:55;;;;;;;5.88;2.58;;;9.40;99.90;;;;;;2086420;28;20025;-70
2022/10/11 00:52:59;;;;;;;10.25;3.50;;;9.40;99.90;;;;;;2086656;28;20135;-70
2022/10/11 00:54:01;;;;;;;7.38;3.22;;;9.30;99.90;;;;;;2083564;28;20025;-71
2022/10/11 00:55:17;;;;;;;10.75;3.53;;;9.30;99.90;;;;;;2084841;28;20107;-71
2022/10/11 00:56:25;;;;;;;5.90;2.83;;;9.30;99.90;;;;;;2085359;28;20017;-71
2022/10/11 00:57:29;;;;;;;9.10;2.90;;;9.30;99.90;;;;;;2086440;28;20025;-71
2022/10/11 00:58:32;;;;;;;7.65;3.72;;;9.30;99.90;;;;;;2086491;28;20021;-71
2022/10/11 00:59:38;;;;;;;8.45;3.15;;;9.30;99.90;;;;;;2085723;28;20025;-71
2022/10/11 01:00:38;;;;;;;7.80;3.17;;;9.30;99.90;;;;;;2086403;28;20020;-71
2022/10/11 01:01:39;;;;;;;8.55;3.45;;;9.30;99.90;;;;;;2085793;28;20546;-71
2022/10/11 01:02:41;;;;;;;8.52;3.58;;;9.30;99.90;;;;;;2085001;28;20073;-71
2022/10/11 01:03:43;;;;;;;7.55;3.10;;;9.20;99.90;;;;;;2086161;28;20110;-71
2022/10/11 01:04:44;;;;;;;10.75;3.20;;;9.30;99.90;;;;;;2084587;28;20775;-71
2022/10/11 01:05:45;;;;;;;8.52;2.90;;;9.30;99.90;;;;;;2083031;28;20170;-71
2022/10/11 01:06:47;;;;;;;5.88;3.20;;;9.20;99.90;;;;;;2086612;28;20048;-70
2022/10/11 01:07:49;;;;;;;6.55;2.75;;;9.20;99.90;;;;;;2086266;28;20032;-70
2022/10/11 01:08:50;;;;;;;8.90;3.10;;;9.20;99.90;;;;;;2086102;28;20029;-70
2022/10/11 01:09:51;;;;;;;7.03;3.35;;;9.20;99.90;;;;;;2084780;28;20022;-70
2022/10/11 01:10:52;;;;;;;5.00;3.10;;;9.20;99.90;;;;;;2086118;28;20141;-71
2022/10/11 01:11:56;;;;;;;7.43;3.60;;;9.20;99.90;;;;;;2086315;28;20033;-71
2022/10/11 01:13:18;;;;;;;6.03;3.50;;;9.20;99.90;;;;;;2085928;28;20060;-71
2022/10/11 01:14:49;;;;;;;6.43;3.25;;;9.20;99.90;;;;;;2077337;28;20489;-71
2022/10/11 01:16:17;;;;;;;7.63;3.67;;;9.10;99.90;;;;;;2080898;28;20087;-71
2022/10/11 01:17:32;;;;;;;9.77;4.03;;;9.10;99.90;;;;;;2075804;28;20029;-70
2022/10/11 01:18:45;;;;;;;9.13;3.70;;;9.10;99.90;;;;;;2080979;28;20456;-70
2022/10/11 01:20:05;;;;;;;6.72;2.80;;;9.10;99.90;;;;;;2086032;28;20378;-70
2022/10/11 01:21:44;;;;;;;5.43;2.97;;;9.00;99.90;;;;;;2085404;28;20074;-70
2022/10/11 01:22:48;;;;;;;9.48;3.25;;;9.00;99.90;;;;;;2084316;28;20217;-71
2022/10/11 01:24:16;;;;;;;10.65;3.70;;;9.00;99.90;;;;;;2084949;28;20025;-70
2022/10/11 01:25:35;;;;;;;11.23;4.00;;;9.00;99.90;;;;;;2085299;28;20029;-70
2022/10/11 01:27:06;;;;;;;8.95;3.13;;;9.00;99.90;;;;;;2085868;28;20029;-71
2022/10/11 01:28:21;;;;;;;6.15;3.33;;;9.00;99.90;;;;;;2084055;28;20025;-71
2022/10/11 01:29:37;;;;;;;8.98;3.15;;;8.90;99.90;;;;;;2085619;28;20017;-71
2022/10/11 01:30:38;;;;;;;7.38;3.30;;;8.90;99.90;;;;;;2084557;28;20021;-71
2022/10/11 01:31:45;;;;;;;8.32;3.97;;;8.90;99.90;;;;;;2084980;28;20037;-70
2022/10/11 01:33:03;;;;;;;7.57;3.42;;;8.90;99.90;;;;;;2085977;28;20393;-70
2022/10/11 01:34:25;;;;;;;8.55;3.30;;;8.90;99.90;;;;;;2084071;28;20037;-70
2022/10/11 01:35:35;;;;;;;6.63;3.38;;;8.90;99.90;;;;;;2085106;28;20028;-70
2022/10/11 01:36:47;;;;;;;9.48;3.65;;;8.90;99.90;;;;;;2084474;28;20017;-70
2022/10/11 01:38:07;;;;;;;8.70;2.97;;;8.90;99.90;;;;;;2077965;28;21041;-70
2022/10/11 01:39:34;;;;;;;5.63;3.10;;;8.90;99.90;;;;;;2079808;28;20059;-70
2022/10/11 01:40:40;;;;;;;7.75;3.75;;;8.90;99.90;;;;;;2079760;28;20045;-70
2022/10/11 01:41:47;;;;;;;7.30;3.35;;;8.90;99.90;;;;;;2086189;28;20083;-70
2022/10/11 01:42:49;;;;;;;7.10;3.08;;;8.80;99.90;;;;;;2085240;28;21294;-70
2022/10/11 01:43:54;;;;;;;6.47;3.53;;;8.80;99.90;;;;;;2084897;28;20037;-70
2022/10/11 01:44:57;;;;;;;7.47;3.17;;;8.80;99.90;;;;;;2087216;28;20025;-70
2022/10/11 01:45:59;;;;;;;7.55;3.83;;;8.80;99.90;;;;;;2085441;28;20515;-70
2022/10/11 01:46:59;;;;;;;7.75;3.88;;;8.80;99.90;;;;;;2086940;28;20040;-70
2022/10/11 01:48:05;;;;;;;7.10;3.30;;;8.80;99.90;;;;;;2087533;28;20095;-70
2022/10/11 01:49:06;;;;;;;8.52;3.50;;;8.80;99.90;;;;;;2087552;28;20805;-70
2022/10/11 01:50:50;;;;;;;8.48;4.20;;;8.80;99.90;;;;;;2088007;28;20401;-70
2022/10/11 01:51:54;;;;;;;8.45;3.50;;;8.80;99.90;;;;;;2080179;28;20165;-70
2022/10/11 01:52:57;;;;;;;9.50;4.40;;;8.80;99.90;;;;;;2086015;28;20025;-70
2022/10/11 01:54:27;;;;;;;8.05;3.70;;;8.80;99.90;;;;;;2087270;28;20047;-70
2022/10/11 01:55:41;;;;;;;8.52;3.90;;;8.80;99.90;;;;;;2086617;28;20832;-70
2022/10/11 01:56:54;;;;;;;7.00;3.97;;;8.80;99.90;;;;;;2087743;28;20562;-70
2022/10/11 01:58:15;;;;;;;10.30;3.80;;;8.80;99.90;;;;;;2086390;28;20421;-70
2022/10/11 01:59:51;;;;;;;7.47;3.38;;;8.80;99.90;;;;;;2078506;28;20389;-70
2022/10/11 02:01:18;;;;;;;5.70;3.10;;;8.80;99.90;;;;;;2084029;28;20124;-70
2022/10/11 02:02:45;;;;;;;12.38;4.03;;;8.70;99.90;;;;;;2086759;28;20059;-70
2022/10/11 02:03:58;;;;;;;13.50;4.35;;;8.70;99.90;;;;;;2086844;28;20025;-70
2022/10/11 02:05:11;;;;;;;6.18;3.58;;;8.70;99.90;;;;;;2085191;28;20044;-70
2022/10/11 02:06:21;;;;;;;6.70;3.20;;;8.70;99.90;;;;;;2086880;28;20115;-70
2022/10/11 02:07:41;;;;;;;7.95;3.80;;;8.70;99.90;;;;;;2086703;28;20029;-70
2022/10/11 02:09:08;;;;;;;6.53;3.92;;;8.70;99.90;;;;;;2087815;28;20029;-70
2022/10/11 02:10:40;;;;;;;7.25;3.53;;;8.70;99.90;;;;;;2075183;28;20384;-71
2022/10/11 02:11:42;;;;;;;9.00;4.00;;;8.60;99.90;;;;;;2084604;28;20116;-70
2022/10/11 02:12:49;;;;;;;7.15;3.80;;;8.60;99.90;;;;;;2086745;28;20021;-70
2022/10/11 02:13:59;;;;;;;10.25;3.95;;;8.60;99.90;;;;;;2085505;28;20538;-70
2022/10/11 02:15:05;;;;;;;7.20;3.40;;;8.60;99.90;;;;;;2086175;28;20017;-70
2022/10/11 02:16:11;;;;;;;6.25;3.00;;;8.60;99.90;;;;;;2077968;28;20601;-70
2022/10/11 02:17:18;;;;;;;11.10;4.35;;;8.60;99.90;;;;;;2079503;28;20657;-70
2022/10/11 02:18:23;;;;;;;8.55;4.22;;;8.60;99.90;;;;;;2086319;28;20477;-70
2022/10/11 02:19:30;;;;;;;7.55;3.83;;;8.60;99.90;;;;;;2078344;28;20038;-70
2022/10/11 02:20:33;;;;;;;8.30;4.00;;;8.60;99.90;;;;;;2080132;28;20025;-70
2022/10/11 02:21:37;;;;;;;7.22;3.45;;;8.60;99.90;;;;;;2087422;28;20032;-70
2022/10/11 02:22:41;;;;;;;13.32;4.80;;;8.60;99.90;;;;;;2086152;28;20484;-70
2022/10/11 02:23:47;;;;;;;9.80;4.38;;;8.60;99.90;;;;;;2086723;28;20526;-70
2022/10/11 02:24:51;;;;;;;6.78;3.85;;;8.60;99.90;;;;;;2086515;28;20045;-70
2022/10/11 02:25:53;;;;;;;13.60;4.00;;;8.60;99.90;;;;;;2087068;28;20032;-71
2022/10/11 02:26:58;;;;;;;9.90;4.13;;;8.60;99.90;;;;;;2078280;28;20041;-71
2022/10/11 02:28:01;;;;;;;8.73;4.00;;;8.60;99.90;;;;;;2078669;28;20474;-70
2022/10/11 02:29:06;;;;;;;9.23;4.20;;;8.60;99.90;;;;;;2087084;28;20025;-70
2022/10/11 02:30:08;;;;;;;6.82;3.95;;;8.60;99.90;;;;;;2086848;28;20021;-70
2022/10/11 02:31:10;;;;;;;10.32;4.10;;;8.60;99.90;;;;;;2086532;28;20025;-70
2022/10/11 02:32:12;;;;;;;8.90;4.45;;;8.60;99.90;;;;;;2086764;28;20074;-71
2022/10/11 02:33:17;;;;;;;9.27;4.18;;;8.50;99.90;;;;;;2087004;28;20373;-70
2022/10/11 02:34:26;;;;;;;10.05;4.47;;;8.60;99.90;;;;;;2086489;28;20021;-70
2022/10/11 02:35:29;;;;;;;8.25;4.03;;;8.60;99.90;;;;;;2088230;28;20784;-70
2022/10/11 02:36:46;;;;;;;7.55;3.63;;;8.50;99.90;;;;;;2087020;28;20025;-70
2022/10/11 02:37:57;;;;;;;7.28;3.67;;;8.60;99.90;;;;;;2086064;28;20017;-70
2022/10/11 02:38:59;;;;;;;;;;;8.50;99.90;;;;;;2086302;28;20044;-70
2022/10/11 02:40:20;;;;;;;8.57;4.45;;;8.40;99.90;;;;;;2087937;28;19909;-70
2022/10/11 02:41:33;;;;;;;11.57;4.65;;;8.50;99.90;;;;;;2086717;28;20029;-70
2022/10/11 02:42:38;;;;;;;7.50;4.25;;;8.40;99.90;;;;;;2094000;28;20036;-70
2022/10/11 02:43:44;;;;;;;9.20;3.70;;;8.40;99.90;;;;;;2084604;28;20439;-70
2022/10/11 02:45:03;;;;;;;9.27;4.43;;;8.40;99.90;;;;;;2079481;28;20038;-70
2022/10/11 02:46:06;;;;;;;8.67;3.97;;;8.40;99.90;;;;;;2086533;28;20033;-70
2022/10/11 02:47:08;;;;;;;8.35;4.20;;;8.40;99.90;;;;;;2086044;28;20271;-70
2022/10/11 02:48:10;;;;;;;7.20;3.42;;;8.40;99.90;;;;;;2087564;28;20055;-70
2022/10/11 02:49:13;;;;;;;10.30;4.03;;;8.40;99.90;;;;;;2087529;28;20032;-70
2022/10/11 02:50:14;;;;;;;10.82;4.00;;;8.40;99.90;;;;;;2086555;28;20029;-70
2022/10/11 02:51:16;;;;;;;8.77;4.50;;;8.40;99.90;;;;;;2084006;28;20017;-71
2022/10/11 02:52:16;;;;;;;11.10;4.35;;;8.40;99.90;;;;;;2086506;28;20044;-71
2022/10/11 02:53:17;;;;;;;10.50;4.68;;;8.40;99.90;;;;;;2085476;28;20071;-71
2022/10/11 02:54:18;;;;;;;12.38;4.82;;;8.40;99.90;;;;;;2087005;28;20448;-71
2022/10/11 02:55:18;;;;;;;8.40;4.47;;;8.40;99.90;;;;;;2084764;28;20108;-71
2022/10/11 02:56:19;;;;;;;9.68;4.35;;;8.40;99.90;;;;;;2087053;28;20693;-70
2022/10/11 02:57:19;;;;;;;8.05;4.13;;;8.40;99.90;;;;;;2086457;28;20036;-70
2022/10/11 02:58:21;;;;;;;8.73;4.55;;;8.40;99.90;;;;;;2087599;28;20358;-70
2022/10/11 02:59:22;;;;;;;5.80;4.28;;;8.40;99.90;;;;;;2087448;28;20033;-70
2022/10/11 03:00:22;;;;;;;9.43;3.97;;;8.40;99.90;;;;;;2086198;28;20108;-70
2022/10/11 03:01:23;;;;;;;9.02;4.13;;;8.40;99.90;;;;;;2087120;28;20025;-70
2022/10/11 03:02:23;;;;;;;8.07;4.28;;;8.40;99.90;;;;;;2087435;28;20036;-70
2022/10/11 03:03:24;;;;;;;11.35;4.72;;;8.40;99.90;;;;;;2085919;28;20091;-70
2022/10/11 03:04:25;;;;;;;8.25;4.28;;;8.40;99.90;;;;;;2085993;28;20025;-70
2022/10/11 03:05:25;;;;;;;11.63;4.82;;;8.40;99.90;;;;;;2086981;28;20029;-70
2022/10/11 03:08:26;;;;;;;8.50;4.55;;;8.40;99.90;;;;;;2086391;28;20017;-70
2022/10/11 03:09:27;;;;;;;5.85;3.50;;;8.30;99.90;;;;;;2080053;28;20151;-70
2022/10/11 03:10:27;;;;;;;7.28;4.60;;;8.30;99.90;;;;;;2087048;28;20029;-70
2022/10/11 03:11:28;;;;;;;7.70;4.20;;;8.30;99.90;;;;;;2086358;28;20139;-70
2022/10/11 03:12:28;;;;;;;10.82;4.70;;;8.30;99.90;;;;;;2086913;28;20029;-70
2022/10/11 03:13:29;;;;;;;8.65;4.32;;;8.30;99.90;;;;;;2085398;28;20472;-70
2022/10/11 03:14:29;;;;;;;9.50;3.85;;;8.30;99.90;;;;;;2086236;28;20651;-70
2022/10/11 03:15:30;;;;;;;10.60;4.88;;;8.30;99.90;;;;;;2085930;28;20038;-70
2022/10/11 03:16:31;;;;;;;6.15;4.13;;;8.30;99.90;;;;;;2086222;28;20074;-70
2022/10/11 03:17:31;;;;;;;13.80;5.30;;;8.30;99.90;;;;;;2086990;28;21504;-70
2022/10/11 03:18:32;;;;;;;8.38;4.28;;;8.30;99.90;;;;;;2077958;28;20079;-70
2022/10/11 03:19:32;;;;;;;7.18;4.63;;;8.30;99.90;;;;;;2078539;28;20032;-70
2022/10/11 03:20:33;;;;;;;10.93;5.00;;;8.20;99.90;;;;;;2086744;28;20025;-70
2022/10/11 03:21:34;;;;;;;9.57;4.75;;;8.20;99.90;;;;;;2087281;28;20360;-70
2022/10/11 03:22:35;;;;;;;8.20;4.30;;;8.20;99.90;;;;;;2086154;28;20025;-70
2022/10/11 03:23:36;;;;;;;10.00;5.25;;;8.20;99.90;;;;;;2084431;28;20036;-70
2022/10/11 03:24:36;;;;;;;8.48;4.05;;;8.20;99.90;;;;;;2086253;28;20110;-70
2022/10/11 03:25:37;;;;;;;9.82;4.95;;;8.20;99.90;;;;;;2086430;28;20032;-70
2022/10/11 03:26:37;;;;;;;8.25;5.05;;;8.20;99.90;;;;;;2085682;28;20121;-70
2022/10/11 03:27:38;;;;;;;14.45;4.90;;;8.20;99.90;;;;;;2086628;28;20508;-71
2022/10/11 03:28:38;;;;;;;12.00;4.20;;;8.20;99.90;;;;;;2086754;28;20035;-70
2022/10/11 03:29:39;;;;;;;11.48;4.68;;;8.20;99.90;;;;;;2086760;28;20032;-70
2022/10/11 03:30:39;;;;;;;10.18;5.25;;;8.20;99.90;;;;;;2086659;28;20021;-70
2022/10/11 03:31:40;;;;;;;9.80;4.50;;;8.20;99.90;;;;;;2086686;28;21329;-70
2022/10/11 03:32:41;;;;;;;7.97;4.30;;;8.20;99.90;;;;;;2086687;28;20035;-70
2022/10/11 03:33:41;;;;;;;12.68;5.25;;;8.20;99.90;;;;;;2084552;28;20021;-70
2022/10/11 03:34:42;;;;;;;9.32;4.85;;;8.20;99.90;;;;;;2087056;28;20100;-70
2022/10/11 03:35:44;;;;;;;7.28;4.53;;;8.20;99.90;;;;;;2085126;28;20571;-71
2022/10/11 03:36:45;;;;;;;8.63;4.68;;;8.10;99.90;;;;;;2086396;28;20021;-71
2022/10/11 03:37:45;;;;;;;8.95;4.78;;;8.10;99.90;;;;;;2087570;28;20025;-71
2022/10/11 03:38:46;;;;;;;8.30;4.38;;;8.20;99.90;;;;;;2086039;28;20437;-71
2022/10/11 03:39:46;;;;;;;9.52;5.40;;;8.10;99.90;;;;;;2086608;28;20043;-71
2022/10/11 03:40:47;;;;;;;9.25;4.85;;;8.10;99.90;;;;;;2085191;28;20477;-71
2022/10/11 03:41:48;;;;;;;13.32;5.65;;;8.10;99.90;;;;;;2086817;28;20017;-71
2022/10/11 03:42:48;;;;;;;7.38;4.43;;;8.10;99.90;;;;;;2087277;28;20040;-71
2022/10/11 03:43:49;;;;;;;11.55;5.03;;;8.10;99.90;;;;;;2084985;28;20025;-70
2022/10/11 03:44:50;;;;;;;9.57;5.22;;;8.10;99.90;;;;;;2086842;28;20428;-70
2022/10/11 03:45:51;;;;;;;9.23;5.35;;;8.10;99.90;;;;;;2086619;28;20021;-70
2022/10/11 03:46:51;;;;;;;10.57;5.47;;;8.10;99.90;;;;;;2084415;28;20060;-70
2022/10/11 03:47:52;;;;;;;9.95;5.28;;;8.10;99.90;;;;;;2086069;28;20040;-70
2022/10/11 03:48:52;;;;;;;12.10;5.57;;;8.10;99.90;;;;;;2085301;28;20120;-70
2022/10/11 03:49:53;;;;;;;11.80;5.72;;;8.10;99.90;;;;;;2087293;28;20396;-70
2022/10/11 03:50:53;;;;;;;8.05;5.43;;;8.10;99.90;;;;;;2085687;28;20029;-70
2022/10/11 03:51:54;;;;;;;8.55;4.97;;;8.10;99.90;;;;;;2086577;28;20021;-70
2022/10/11 03:52:54;;;;;;;9.25;5.20;;;8.00;99.90;;;;;;2087084;28;20384;-70
2022/10/11 03:53:55;;;;;;;11.32;6.40;;;8.10;99.90;;;;;;2086334;28;20082;-70
2022/10/11 03:54:55;;;;;;;8.23;5.03;;;8.00;99.90;;;;;;2087193;28;20021;-70
2022/10/11 03:55:56;;;;;;;11.93;5.78;;;8.00;99.90;;;;;;2085249;28;20032;-70
2022/10/11 03:56:57;;;;;;;9.70;4.93;;;8.00;99.90;;;;;;2085646;28;20108;-70
2022/10/11 03:57:57;;;;;;;10.95;5.50;;;8.00;99.90;;;;;;2086949;28;20014;-70
2022/10/11 03:58:58;;;;;;;9.43;5.30;;;8.00;99.90;;;;;;2085595;28;20044;-70
2022/10/11 03:59:59;;;;;;;11.43;6.13;;;8.00;99.90;;;;;;2086576;28;20033;-70
2022/10/11 04:00:59;;;;;;;8.25;4.68;;;8.00;99.90;;;;;;2079170;28;20115;-70
2022/10/11 04:02:00;;;;;;;9.80;6.22;;;8.00;99.90;;;;;;2077663;28;20144;-70
2022/10/11 04:03:02;;;;;;;12.23;6.22;;;8.00;99.90;;;;;;2086276;28;20392;-70
2022/10/11 04:04:04;;;;;;;10.15;5.45;;;8.00;99.90;;;;;;2085148;28;20044;-70
2022/10/11 04:05:05;;;;;;;15.50;6.63;;;8.00;99.90;;;;;;2086316;28;20009;-70
2022/10/11 04:06:06;;;;;;;11.75;5.63;;;8.00;99.90;;;;;;2077979;28;20034;-70
2022/10/11 04:07:06;;;;;;;9.70;6.10;;;8.00;99.90;;;;;;2077296;28;20041;-70
2022/10/11 04:08:07;;;;;;;8.63;5.50;;;8.00;99.90;;;;;;2086860;28;20036;-70
2022/10/11 04:09:08;;;;;;;10.20;6.03;;;8.00;99.90;;;;;;2085574;28;20028;-70
2022/10/11 04:10:08;;;;;;;10.18;6.13;;;8.00;99.90;;;;;;2086476;28;20021;-70
2022/10/11 04:11:09;;;;;;;11.15;6.80;;;8.00;99.90;;;;;;2085597;28;20370;-70
2022/10/11 04:12:10;;;;;;;9.95;5.90;;;7.90;99.90;;;;;;2086581;28;20076;-70
2022/10/11 04:13:11;;;;;;;12.02;6.40;;;7.90;99.90;;;;;;2085024;28;20017;-70
2022/10/11 04:14:11;;;;;;;12.93;6.90;;;8.00;99.90;;;;;;2087057;28;20059;-70
2022/10/11 04:15:12;;;;;;;11.70;7.03;;;7.90;99.90;;;;;;2085783;28;20029;-70
2022/10/11 04:16:12;;;;;;;11.02;6.30;;;7.90;99.90;;;;;;2086662;28;20029;-70
2022/10/11 04:17:13;;;;;;;13.30;7.75;;;7.90;99.90;;;;;;2086267;28;20123;-70
2022/10/11 04:18:14;;;;;;;12.40;6.65;;;7.90;99.90;;;;;;2085860;28;20540;-70
2022/10/11 04:19:14;;;;;;;11.07;6.68;;;7.90;99.90;;;;;;2085543;28;20075;-70
2022/10/11 04:20:15;;;;;;;14.43;6.65;;;7.90;99.90;;;;;;2084769;28;20057;-70
2022/10/11 04:21:15;;;;;;;12.05;7.10;;;7.90;99.90;;;;;;2086413;28;20035;-71
2022/10/11 04:22:16;;;;;;;9.98;6.85;;;7.90;99.90;;;;;;2086216;28;20424;-70
2022/10/11 04:23:16;;;;;;;10.60;6.57;;;7.90;99.90;;;;;;2086062;28;20048;-70
2022/10/11 04:24:17;;;;;;;11.60;7.10;;;7.90;99.90;;;;;;2086225;28;20030;-70
2022/10/11 04:25:17;;;;;;;17.20;7.60;;;7.90;99.90;;;;;;2086166;28;20100;-70
2022/10/11 04:26:18;;;;;;;14.68;8.10;;;7.80;99.90;;;;;;2085698;28;20036;-70
2022/10/11 04:27:18;;;;;;;17.45;7.65;;;7.90;99.90;;;;;;2085997;28;20488;-70
2022/10/11 04:28:19;;;;;;;11.55;7.93;;;7.90;99.90;;;;;;2085873;28;20427;-70
2022/10/11 04:29:20;;;;;;;11.07;7.10;;;7.90;99.90;;;;;;2086337;28;20039;-70
2022/10/11 04:30:20;;;;;;;13.27;7.68;;;7.90;99.90;;;;;;2087012;28;20416;-70
2022/10/11 04:31:21;;;;;;;13.15;7.18;;;7.80;99.90;;;;;;2085530;28;20036;-70
2022/10/11 04:32:22;;;;;;;11.25;6.72;;;7.90;99.90;;;;;;2085998;28;20028;-70
2022/10/11 04:33:22;;;;;;;10.13;6.57;;;7.80;99.90;;;;;;2077842;28;20390;-70
2022/10/11 04:34:23;;;;;;;11.43;7.90;;;7.80;99.90;;;;;;2078552;28;20041;-70
2022/10/11 04:35:23;;;;;;;13.32;8.18;;;7.80;99.90;;;;;;2086394;28;20029;-70
2022/10/11 04:36:24;;;;;;;11.50;7.30;;;7.80;99.90;;;;;;2084859;28;20430;-70
2022/10/11 04:37:24;;;;;;;12.45;7.38;;;7.80;99.90;;;;;;2086102;28;20027;-70
2022/10/11 04:38:25;;;;;;;10.13;7.32;;;7.80;99.90;;;;;;2085263;28;20021;-70
2022/10/11 04:39:25;;;;;;;11.75;7.30;;;7.80;99.90;;;;;;2085569;28;20021;-70
2022/10/11 04:40:26;;;;;;;14.77;7.32;;;7.80;99.90;;;;;;2085005;28;20036;-70
2022/10/11 04:41:28;;;;;;;12.98;7.78;;;7.80;99.90;;;;;;2085823;28;20358;-70
2022/10/11 04:42:28;;;;;;;10.90;6.43;;;7.80;99.90;;;;;;2086006;28;20464;-70
2022/10/11 04:43:29;;;;;;;11.15;6.80;;;7.80;99.90;;;;;;2086090;28;20099;-70
2022/10/11 04:44:30;;;;;;;14.13;8.45;;;7.80;99.90;;;;;;2085711;28;20409;-70
2022/10/11 04:45:31;;;;;;;11.73;6.75;;;7.80;99.90;;;;;;2084721;28;20051;-70
2022/10/11 04:46:31;;;;;;;11.05;7.00;;;7.80;99.90;;;;;;2084959;28;20024;-70
2022/10/11 04:47:32;;;;;;;14.15;8.13;;;7.80;99.90;;;;;;2086072;28;20104;-70
2022/10/11 04:48:33;;;;;;;8.75;6.40;;;7.70;99.90;;;;;;2085590;28;20024;-70
2022/10/11 04:49:33;;;;;;;9.93;7.00;;;7.80;99.90;;;;;;2085544;28;20040;-70
2022/10/11 04:50:35;;;;;;;15.13;7.82;;;7.70;99.90;;;;;;2086155;28;20021;-70
2022/10/11 04:51:35;;;;;;;10.38;6.45;;;7.80;99.90;;;;;;2085854;28;20420;-70
2022/10/11 04:52:36;;;;;;;12.73;8.13;;;7.70;99.90;;;;;;2086063;28;20025;-70
2022/10/11 04:53:36;;;;;;;12.93;6.57;;;7.70;99.90;;;;;;2085009;28;20036;-70
2022/10/11 04:54:37;;;;;;;12.85;8.32;;;7.70;99.90;;;;;;2085278;28;20018;-70
2022/10/11 04:55:37;;;;;;;12.05;8.23;;;7.70;99.90;;;;;;2085694;28;20025;-70
2022/10/11 04:56:38;;;;;;;11.63;7.05;;;7.70;99.90;;;;;;2086381;28;20017;-70
2022/10/11 04:57:38;;;;;;;14.32;7.32;;;7.70;99.90;;;;;;2084412;28;20109;-70
2022/10/11 04:58:40;;;;;;;12.10;7.18;;;7.70;99.90;;;;;;2086848;28;20024;-70
2022/10/11 04:59:40;;;;;;;13.85;8.15;;;7.70;99.90;;;;;;2077524;28;20208;-70
2022/10/11 05:00:41;;;;;;;13.57;7.55;;;7.70;99.90;;;;;;2078064;28;20037;-70
2022/10/11 05:01:41;;;;;;;10.40;6.47;;;7.70;99.90;;;;;;2087624;28;20758;-70
2022/10/11 05:02:42;;;;;;;13.45;8.48;;;7.70;99.90;;;;;;2085823;28;20431;-70
2022/10/11 05:03:42;;;;;;;14.07;8.20;;;7.70;99.90;;;;;;2086427;28;20060;-70
2022/10/11 05:04:43;;;;;;;12.77;7.85;;;7.70;99.90;;;;;;2084685;28;20040;-70
2022/10/11 05:05:46;;;;;;;10.93;7.90;;;7.60;99.90;;;;;;2085908;28;20063;-70
2022/10/11 05:06:46;;;;;;;10.85;6.95;;;7.70;99.90;;;;;;2086429;28;20104;-70
2022/10/11 05:07:47;;;;;;;12.77;7.40;;;7.60;99.90;;;;;;2085463;28;20025;-71
2022/10/11 05:08:47;;;;;;;12.90;7.72;;;7.60;99.90;;;;;;2085179;28;20067;-70
2022/10/11 05:09:48;;;;;;;12.63;8.00;;;7.60;99.90;;;;;;2077605;28;20058;-70
2022/10/11 05:11:00;;;;;;;15.40;8.00;;;7.60;99.90;;;;;;2076944;28;20018;-70
2022/10/11 05:12:00;;;;;;;12.68;7.55;;;7.60;99.90;;;;;;2085709;28;20629;-70
2022/10/11 05:13:01;;;;;;;13.90;8.23;;;7.60;99.90;;;;;;2084324;28;20029;-70
2022/10/11 05:14:01;;;;;;;14.85;7.82;;;7.60;99.90;;;;;;2085279;28;20405;-70
2022/10/11 05:15:02;;;;;;;11.77;8.02;;;7.60;99.90;;;;;;2086247;28;20033;-70
2022/10/11 05:16:04;;;;;;;14.13;7.80;;;7.60;99.90;;;;;;2085987;28;20411;-70
2022/10/11 05:17:05;;;;;;;12.80;7.70;;;7.60;99.90;;;;;;2084784;28;20080;-70
2022/10/11 05:18:05;;;;;;;11.65;7.22;;;7.60;99.90;;;;;;2086620;28;20009;-70
2022/10/11 05:19:06;;;;;;;11.77;7.30;;;7.60;99.90;;;;;;2085943;28;20108;-70
2022/10/11 05:20:07;;;;;;;11.13;6.70;;;7.60;99.90;;;;;;2086086;28;20041;-70
2022/10/11 05:21:13;;;;;;;16.92;7.75;;;7.50;99.90;;;;;;2086001;28;20017;-70
2022/10/11 05:22:14;;;;;;;10.57;7.70;;;7.50;99.90;;;;;;2084463;28;20470;-70
2022/10/11 05:23:14;;;;;;;13.02;8.10;;;7.60;99.90;;;;;;2085222;28;20087;-70
2022/10/11 05:24:15;;;;;;;12.10;7.55;;;7.50;99.90;;;;;;2086407;28;20039;-70
2022/10/11 05:25:15;;;;;;;14.98;8.15;;;7.50;99.90;;;;;;2084857;28;20039;-70
2022/10/11 05:26:17;;;;;;;12.68;7.70;;;7.50;99.90;;;;;;2085311;28;20032;-70
2022/10/11 05:27:17;;;;;;;12.05;8.30;;;7.50;99.90;;;;;;2086262;28;20083;-70
2022/10/11 05:28:18;;;;;;;10.90;6.13;;;7.50;99.90;;;;;;2084329;28;20163;-70
2022/10/11 05:29:18;;;;;;;12.57;7.82;;;7.50;99.90;;;;;;2086340;28;20040;-71
2022/10/11 05:30:19;;;;;;;11.05;7.35;;;7.50;99.90;;;;;;2085794;28;20068;-70
2022/10/11 05:31:20;;;;;;;12.65;7.28;;;7.50;99.90;;;;;;2086090;28;20029;-70
2022/10/11 05:32:20;;;;;;;16.13;8.48;;;7.50;99.90;;;;;;2086174;28;20103;-70
2022/10/11 05:33:21;;;;;;;13.27;8.05;;;7.50;99.90;;;;;;2085820;28;20476;-70
2022/10/11 05:34:21;;;;;;;14.07;8.20;;;7.50;99.90;;;;;;2086110;28;20025;-70
2022/10/11 05:35:22;;;;;;;14.80;8.10;;;7.40;99.90;;;;;;2084733;28;20071;-70
2022/10/11 05:36:22;;;;;;;11.70;6.93;;;7.50;99.90;;;;;;2084925;28;20025;-71
2022/10/11 05:37:23;;;;;;;11.88;7.60;;;7.50;99.90;;;;;;2084909;28;20028;-70